createdAt,value
2023-03-22T00:07:16.010Z,32.90
2023-03-22T00:15:24.373Z,32.20
2023-03-22T00:23:31.196Z,30.58
2023-03-22T00:31:39.224Z,31.60
2023-03-22T00:39:44.608Z,29.50
2023-03-22T00:47:52.621Z,27.65
2023-03-22T00:55:58.225Z,30.45
2023-03-22T01:04:08.269Z,29.45
2023-03-22T01:12:14.001Z,28.50
2023-03-22T01:20:22.306Z,31.90
2023-03-22T01:28:27.816Z,28.35
2023-03-22T01:36:36.231Z,26.92
2023-03-22T01:44:45.114Z,23.75
2023-03-22T01:52:55.326Z,23.10
2023-03-22T02:09:42.645Z,30.38
2023-03-22T02:18:01.877Z,26.08
2023-03-22T02:26:47.902Z,23.20
2023-03-22T02:35:24.401Z,28.48
2023-03-22T02:43:40.963Z,27.05
2023-03-22T02:51:49.682Z,23.05
2023-03-22T02:59:59.906Z,28.05
2023-03-22T03:08:06.936Z,26.98
2023-03-22T03:16:23.101Z,24.88
2023-03-22T03:24:34.966Z,26.92
2023-03-22T03:32:49.496Z,22.88
2023-03-22T03:41:00.255Z,26.80
2023-03-22T03:49:10.145Z,25.90
2023-03-22T03:57:16.772Z,28.65
2023-03-22T04:05:24.822Z,28.38
2023-03-22T04:13:30.403Z,27.50
2023-03-22T04:21:42.070Z,29.08
2023-03-22T04:29:48.660Z,26.08
2023-03-22T04:38:25.452Z,23.52
2023-03-22T04:46:33.306Z,26.65
2023-03-22T04:54:45.633Z,25.73
2023-03-22T05:02:51.543Z,26.33
2023-03-22T05:11:13.009Z,21.80
2023-03-22T05:19:22.670Z,18.80
2023-03-22T05:27:34.890Z,18.58
2023-03-22T05:35:56.554Z,15.15
2023-03-22T05:44:06.805Z,16.60
2023-03-22T05:52:14.939Z,20.40
2023-03-22T06:00:43.300Z,26.60
2023-03-22T06:09:16.419Z,24.13
2023-03-22T06:17:27.137Z,20.60
2023-03-22T06:25:32.544Z,17.92
2023-03-22T06:33:41.143Z,12.25
2023-03-22T06:42:01.910Z,15.13
2023-03-22T06:50:11.030Z,16.40
2023-03-22T06:58:33.805Z,16.25
2023-03-22T07:06:41.830Z,15.32
2023-03-22T07:14:47.650Z,15.25
2023-03-22T07:23:12.830Z,16.98
2023-03-22T07:31:27.964Z,17.75
2023-03-22T07:39:49.603Z,22.55
2023-03-22T07:47:55.391Z,18.85
2023-03-22T07:56:22.753Z,17.20
2023-03-22T08:04:29.013Z,19.77
2023-03-22T08:12:41.095Z,18.48
2023-03-22T08:20:57.366Z,12.48
2023-03-22T08:29:08.683Z,14.27
2023-03-22T08:37:16.441Z,9.50
2023-03-22T08:45:26.348Z,10.88
2023-03-22T08:53:39.656Z,9.50
2023-03-22T09:02:07.701Z,11.13
2023-03-22T09:10:17.020Z,10.05
2023-03-22T09:18:28.348Z,10.20
2023-03-22T09:26:38.115Z,10.23
2023-03-22T09:34:47.877Z,7.80
2023-03-22T09:42:57.282Z,8.23
2023-03-22T09:51:08.942Z,10.25
2023-03-22T09:59:20.909Z,7.20
2023-03-22T10:07:37.500Z,8.65
2023-03-22T10:24:19.270Z,10.95
2023-03-22T10:32:32.303Z,7.35
2023-03-22T10:40:42.493Z,7.32
2023-03-22T10:48:50.050Z,5.90
2023-03-22T10:56:58.093Z,6.53
2023-03-22T11:05:05.854Z,11.48
2023-03-22T11:13:23.369Z,8.27
2023-03-22T11:21:34.300Z,10.90
2023-03-22T11:29:48.579Z,12.80
2023-03-22T11:37:55.721Z,10.13
2023-03-22T11:46:04.593Z,9.77
2023-03-22T11:54:12.866Z,6.68
2023-03-22T12:02:26.967Z,6.25
2023-03-22T12:10:34.744Z,10.73
2023-03-22T12:18:50.623Z,6.57
2023-03-22T12:26:59.330Z,19.58
2023-03-22T12:35:17.111Z,8.82
2023-03-22T12:43:38.149Z,9.45
2023-03-22T12:51:46.932Z,8.38
2023-03-22T12:59:55.051Z,12.48
2023-03-22T13:08:04.349Z,8.70
2023-03-22T13:16:24.747Z,8.05
2023-03-22T13:24:34.995Z,7.25
2023-03-22T13:32:41.091Z,5.15
2023-03-22T13:40:56.212Z,5.78
2023-03-22T13:49:28.209Z,6.90
2023-03-22T13:57:51.367Z,13.82
2023-03-22T14:06:09.696Z,12.27
2023-03-22T14:14:22.129Z,9.90
2023-03-22T14:55:13.331Z,8.63
2023-03-22T15:03:27.251Z,9.43
2023-03-22T15:11:34.713Z,17.42
2023-03-22T15:19:49.442Z,13.18
2023-03-22T15:27:55.085Z,10.23
2023-03-22T15:36:03.372Z,13.50
2023-03-22T15:44:19.111Z,11.07
2023-03-22T15:52:29.278Z,8.30
2023-03-22T16:00:36.983Z,8.93
2023-03-22T16:08:46.563Z,7.15
2023-03-22T16:16:52.391Z,6.22
2023-03-22T16:25:02.030Z,6.05
2023-03-22T16:33:07.655Z,5.47
2023-03-22T16:41:23.371Z,4.75
2023-03-22T16:49:29.227Z,4.60
2023-03-22T16:57:38.806Z,5.10
2023-03-22T17:05:46.822Z,5.97
2023-03-22T17:13:56.206Z,5.78
2023-03-22T17:22:01.782Z,8.27
2023-03-22T17:30:11.871Z,12.35
2023-03-22T17:38:18.611Z,8.40
2023-03-22T17:47:06.995Z,11.23
2023-03-22T17:55:16.760Z,20.08
2023-03-22T18:03:24.937Z,22.08
2023-03-22T18:11:30.461Z,12.65
2023-03-22T18:19:51.777Z,15.23
2023-03-22T18:28:03.994Z,11.50
2023-03-22T18:36:13.152Z,11.63
2023-03-22T18:44:19.652Z,13.93
2023-03-22T18:52:41.585Z,18.60
2023-03-22T19:00:55.458Z,18.70
2023-03-22T19:09:03.731Z,17.80
2023-03-22T19:17:09.645Z,18.67
2023-03-22T19:25:17.873Z,19.90
2023-03-22T19:33:39.784Z,26.80
2023-03-22T19:42:05.216Z,31.50
2023-03-22T19:50:15.230Z,27.90
2023-03-22T19:58:23.910Z,24.10
2023-03-22T20:06:36.606Z,25.52
2023-03-22T20:14:44.810Z,36.30
2023-03-22T20:22:51.276Z,38.92
2023-03-22T20:31:00.109Z,42.40
2023-03-22T20:39:07.244Z,56.92
2023-03-22T20:47:16.441Z,53.30
2023-03-22T20:55:22.593Z,53.17
2023-03-22T21:03:32.761Z,52.60
2023-03-22T21:11:39.367Z,45.65
2023-03-22T21:19:49.096Z,45.47
2023-03-22T21:27:56.623Z,36.38
2023-03-22T21:36:05.330Z,26.58
2023-03-22T21:44:12.810Z,25.60
2023-03-22T21:52:24.510Z,24.50
2023-03-22T22:00:31.073Z,25.00
2023-03-22T22:08:39.952Z,25.17
2023-03-22T22:16:46.632Z,28.75
2023-03-22T22:24:56.401Z,29.50
2023-03-22T22:33:04.076Z,33.28
2023-03-22T22:41:14.775Z,30.83
2023-03-22T22:49:20.568Z,35.05
2023-03-22T22:57:29.081Z,33.45
2023-03-22T23:05:34.807Z,25.73
2023-03-22T23:13:46.823Z,28.45
2023-03-22T23:22:00.941Z,31.30
2023-03-22T23:30:11.778Z,28.52
2023-03-22T23:38:17.283Z,30.90
2023-03-22T23:46:26.309Z,24.58
2023-03-22T23:54:31.815Z,29.52
